sensor_id;sensor_type;location;lat;lon;timestamp;temperature;humidity
46117;DHT22;32591;48.102;11.772;2023-11-21T00:00:23;7.20;99.90
46117;DHT22;32591;48.102;11.772;2023-11-21T00:02:51;7.30;99.90
46117;DHT22;32591;48.102;11.772;2023-11-21T00:05:18;7.40;99.90
46117;DHT22;32591;48.102;11.772;2023-11-21T00:07:46;7.50;99.90
46117;DHT22;32591;48.102;11.772;2023-11-21T00:10:13;7.50;99.90
46117;DHT22;32591;48.102;11.772;2023-11-21T00:12:41;7.50;99.90
46117;DHT22;32591;48.102;11.772;2023-11-21T00:15:08;7.60;99.90
46117;DHT22;32591;48.102;11.772;2023-11-21T00:17:37;7.50;99.90
46117;DHT22;32591;48.102;11.772;2023-11-21T00:20:05;7.80;99.90
46117;DHT22;32591;48.102;11.772;2023-11-21T00:22:33;7.60;99.90
46117;DHT22;32591;48.102;11.772;2023-11-21T00:25:01;7.70;99.90
46117;DHT22;32591;48.102;11.772;2023-11-21T00:27:30;7.80;99.90
46117;DHT22;32591;48.102;11.772;2023-11-21T00:29:57;7.60;99.90
46117;DHT22;32591;48.102;11.772;2023-11-21T00:32:24;7.60;99.90
46117;DHT22;32591;48.102;11.772;2023-11-21T00:34:51;7.50;99.90
46117;DHT22;32591;48.102;11.772;2023-11-21T00:37:20;7.60;99.90
46117;DHT22;32591;48.102;11.772;2023-11-21T00:39:47;7.60;99.90
46117;DHT22;32591;48.102;11.772;2023-11-21T00:42:15;7.50;99.90
46117;DHT22;32591;48.102;11.772;2023-11-21T00:44:42;7.40;99.90
46117;DHT22;32591;48.102;11.772;2023-11-21T00:47:08;7.40;99.90
46117;DHT22;32591;48.102;11.772;2023-11-21T00:49:35;7.40;99.90
46117;DHT22;32591;48.102;11.772;2023-11-21T00:52:05;7.50;99.90
46117;DHT22;32591;48.102;11.772;2023-11-21T00:54:32;7.60;99.90
46117;DHT22;32591;48.102;11.772;2023-11-21T00:56:59;7.70;99.90
46117;DHT22;32591;48.102;11.772;2023-11-21T00:59:27;7.80;99.90
46117;DHT22;32591;48.102;11.772;2023-11-21T01:01:53;7.90;99.90
46117;DHT22;32591;48.102;11.772;2023-11-21T01:04:20;7.90;99.90
46117;DHT22;32591;48.102;11.772;2023-11-21T01:06:48;7.90;99.90
46117;DHT22;32591;48.102;11.772;2023-11-21T01:09:15;7.90;99.90
46117;DHT22;32591;48.102;11.772;2023-11-21T01:11:44;7.90;99.90
46117;DHT22;32591;48.102;11.772;2023-11-21T01:14:11;7.90;99.90
46117;DHT22;32591;48.102;11.772;2023-11-21T01:16:40;7.90;99.90
46117;DHT22;32591;48.102;11.772;2023-11-21T01:19:07;7.90;99.90
46117;DHT22;32591;48.102;11.772;2023-11-21T01:21:34;7.90;99.90
46117;DHT22;32591;48.102;11.772;2023-11-21T01:24:01;7.90;99.90
46117;DHT22;32591;48.102;11.772;2023-11-21T01:26:30;7.90;99.90
46117;DHT22;32591;48.102;11.772;2023-11-21T01:28:57;7.80;99.90
46117;DHT22;32591;48.102;11.772;2023-11-21T01:31:24;7.80;99.90
46117;DHT22;32591;48.102;11.772;2023-11-21T01:33:55;7.70;99.90
46117;DHT22;32591;48.102;11.772;2023-11-21T01:36:22;7.70;99.90
46117;DHT22;32591;48.102;11.772;2023-11-21T01:38:49;7.70;99.90
46117;DHT22;32591;48.102;11.772;2023-11-21T01:41:16;7.70;99.90
46117;DHT22;32591;48.102;11.772;2023-11-21T01:43:43;7.70;99.90
46117;DHT22;32591;48.102;11.772;2023-11-21T01:46:09;7.80;99.90
46117;DHT22;32591;48.102;11.772;2023-11-21T01:48:36;7.70;99.90
46117;DHT22;32591;48.102;11.772;2023-11-21T01:51:05;7.70;99.90
46117;DHT22;32591;48.102;11.772;2023-11-21T01:53:33;7.70;99.90
46117;DHT22;32591;48.102;11.772;2023-11-21T01:56:02;7.80;99.90
46117;DHT22;32591;48.102;11.772;2023-11-21T01:58:30;7.70;99.90
46117;DHT22;32591;48.102;11.772;2023-11-21T02:00:58;7.70;99.90
46117;DHT22;32591;48.102;11.772;2023-11-21T02:03:25;7.60;99.90
46117;DHT22;32591;48.102;11.772;2023-11-21T02:05:52;7.60;99.90
46117;DHT22;32591;48.102;11.772;2023-11-21T02:08:21;7.60;99.90
46117;DHT22;32591;48.102;11.772;2023-11-21T02:10:47;7.60;99.90
46117;DHT22;32591;48.102;11.772;2023-11-21T02:13:14;7.60;99.90
46117;DHT22;32591;48.102;11.772;2023-11-21T02:15:41;7.60;99.90
46117;DHT22;32591;48.102;11.772;2023-11-21T02:18:08;7.60;99.90
46117;DHT22;32591;48.102;11.772;2023-11-21T02:20:36;7.60;99.90
46117;DHT22;32591;48.102;11.772;2023-11-21T02:23:05;7.60;99.90
46117;DHT22;32591;48.102;11.772;2023-11-21T02:25:33;7.60;99.90
46117;DHT22;32591;48.102;11.772;2023-11-21T02:28:02;7.60;99.90
46117;DHT22;32591;48.102;11.772;2023-11-21T02:30:30;7.50;99.90
46117;DHT22;32591;48.102;11.772;2023-11-21T02:32:57;8.70;99.90
46117;DHT22;32591;48.102;11.772;2023-11-21T02:35:24;7.40;99.90
46117;DHT22;32591;48.102;11.772;2023-11-21T02:37:52;7.40;99.90
46117;DHT22;32591;48.102;11.772;2023-11-21T02:40:20;7.40;99.90
46117;DHT22;32591;48.102;11.772;2023-11-21T02:42:47;7.50;99.90
46117;DHT22;32591;48.102;11.772;2023-11-21T02:45:17;7.40;99.90
46117;DHT22;32591;48.102;11.772;2023-11-21T02:47:46;7.30;99.90
46117;DHT22;32591;48.102;11.772;2023-11-21T02:50:14;7.30;99.90
46117;DHT22;32591;48.102;11.772;2023-11-21T02:52:41;7.20;99.90
46117;DHT22;32591;48.102;11.772;2023-11-21T02:55:08;7.20;99.90
46117;DHT22;32591;48.102;11.772;2023-11-21T02:57:37;7.20;99.90
46117;DHT22;32591;48.102;11.772;2023-11-21T03:00:04;7.20;99.90
46117;DHT22;32591;48.102;11.772;2023-11-21T03:02:33;7.10;99.90
46117;DHT22;32591;48.102;11.772;2023-11-21T03:05:02;7.30;99.90
46117;DHT22;32591;48.102;11.772;2023-11-21T03:07:30;7.10;99.90
46117;DHT22;32591;48.102;11.772;2023-11-21T03:09:57;7.00;99.90
46117;DHT22;32591;48.102;11.772;2023-11-21T03:12:24;7.00;99.90
46117;DHT22;32591;48.102;11.772;2023-11-21T03:14:52;7.00;99.90
46117;DHT22;32591;48.102;11.772;2023-11-21T03:17:20;6.90;99.90
46117;DHT22;32591;48.102;11.772;2023-11-21T03:19:47;6.90;99.90
46117;DHT22;32591;48.102;11.772;2023-11-21T03:22:14;6.90;99.90
46117;DHT22;32591;48.102;11.772;2023-11-21T03:24:41;7.00;99.90
46117;DHT22;32591;48.102;11.772;2023-11-21T03:27:07;7.00;99.90
46117;DHT22;32591;48.102;11.772;2023-11-21T03:29:34;7.00;99.90
46117;DHT22;32591;48.102;11.772;2023-11-21T03:32:02;7.10;99.90
46117;DHT22;32591;48.102;11.772;2023-11-21T03:34:29;7.20;99.90
46117;DHT22;32591;48.102;11.772;2023-11-21T03:36:56;7.20;99.90
46117;DHT22;32591;48.102;11.772;2023-11-21T03:39:24;7.20;99.90
46117;DHT22;32591;48.102;11.772;2023-11-21T03:41:51;7.20;99.90
46117;DHT22;32591;48.102;11.772;2023-11-21T03:44:18;7.20;99.90
46117;DHT22;32591;48.102;11.772;2023-11-21T03:46:44;7.30;99.90
46117;DHT22;32591;48.102;11.772;2023-11-21T03:49:13;7.40;99.90
46117;DHT22;32591;48.102;11.772;2023-11-21T03:51:40;7.40;99.90
46117;DHT22;32591;48.102;11.772;2023-11-21T03:54:06;7.40;99.90
46117;DHT22;32591;48.102;11.772;2023-11-21T03:56:33;7.30;99.90
46117;DHT22;32591;48.102;11.772;2023-11-21T03:58:59;7.30;99.90
46117;DHT22;32591;48.102;11.772;2023-11-21T04:01:26;7.10;99.90
46117;DHT22;32591;48.102;11.772;2023-11-21T04:03:53;7.10;99.90
46117;DHT22;32591;48.102;11.772;2023-11-21T04:06:21;7.10;99.90
46117;DHT22;32591;48.102;11.772;2023-11-21T04:08:47;7.10;99.90
46117;DHT22;32591;48.102;11.772;2023-11-21T04:11:14;7.20;99.90
46117;DHT22;32591;48.102;11.772;2023-11-21T04:13:41;7.20;99.90
46117;DHT22;32591;48.102;11.772;2023-11-21T04:16:08;7.20;99.90
46117;DHT22;32591;48.102;11.772;2023-11-21T04:18:35;7.20;99.90
46117;DHT22;32591;48.102;11.772;2023-11-21T04:21:02;7.30;99.90
46117;DHT22;32591;48.102;11.772;2023-11-21T04:23:31;7.20;99.90
46117;DHT22;32591;48.102;11.772;2023-11-21T04:25:58;7.20;99.90
46117;DHT22;32591;48.102;11.772;2023-11-21T04:28:24;7.20;99.90
46117;DHT22;32591;48.102;11.772;2023-11-21T04:30:51;7.30;99.90
46117;DHT22;32591;48.102;11.772;2023-11-21T04:33:18;7.20;99.90
46117;DHT22;32591;48.102;11.772;2023-11-21T04:35:45;7.20;99.90
46117;DHT22;32591;48.102;11.772;2023-11-21T04:38:12;7.10;99.90
46117;DHT22;32591;48.102;11.772;2023-11-21T04:40:40;7.20;99.90
46117;DHT22;32591;48.102;11.772;2023-11-21T04:43:07;7.20;99.90
46117;DHT22;32591;48.102;11.772;2023-11-21T04:45:33;7.10;99.90
46117;DHT22;32591;48.102;11.772;2023-11-21T04:48:00;7.10;99.90
46117;DHT22;32591;48.102;11.772;2023-11-21T04:50:27;8.40;99.90
46117;DHT22;32591;48.102;11.772;2023-11-21T04:52:54;7.00;99.90
46117;DHT22;32591;48.102;11.772;2023-11-21T04:55:21;7.00;99.90
46117;DHT22;32591;48.102;11.772;2023-11-21T04:57:49;7.00;99.90
46117;DHT22;32591;48.102;11.772;2023-11-21T05:00:16;6.90;99.90
46117;DHT22;32591;48.102;11.772;2023-11-21T05:02:43;7.00;99.90
46117;DHT22;32591;48.102;11.772;2023-11-21T05:05:10;6.90;99.90
46117;DHT22;32591;48.102;11.772;2023-11-21T05:07:37;7.00;99.90
46117;DHT22;32591;48.102;11.772;2023-11-21T05:10:05;7.00;99.90
46117;DHT22;32591;48.102;11.772;2023-11-21T05:12:36;6.90;99.90
46117;DHT22;32591;48.102;11.772;2023-11-21T05:15:06;6.90;99.90
46117;DHT22;32591;48.102;11.772;2023-11-21T05:17:36;6.90;99.90
46117;DHT22;32591;48.102;11.772;2023-11-21T05:20:05;6.90;99.90
46117;DHT22;32591;48.102;11.772;2023-11-21T05:22:35;6.90;99.90
46117;DHT22;32591;48.102;11.772;2023-11-21T05:25:02;6.90;99.90
46117;DHT22;32591;48.102;11.772;2023-11-21T05:27:35;6.80;99.90
46117;DHT22;32591;48.102;11.772;2023-11-21T05:30:02;6.80;99.90
46117;DHT22;32591;48.102;11.772;2023-11-21T05:32:31;6.80;99.90
46117;DHT22;32591;48.102;11.772;2023-11-21T05:34:59;6.80;99.90
46117;DHT22;32591;48.102;11.772;2023-11-21T05:37:26;6.80;99.90
46117;DHT22;32591;48.102;11.772;2023-11-21T05:39:53;6.80;99.90
46117;DHT22;32591;48.102;11.772;2023-11-21T05:42:21;6.90;99.90
46117;DHT22;32591;48.102;11.772;2023-11-21T05:44:48;7.70;99.90
46117;DHT22;32591;48.102;11.772;2023-11-21T05:47:17;6.70;99.90
46117;DHT22;32591;48.102;11.772;2023-11-21T05:49:44;6.70;99.90
46117;DHT22;32591;48.102;11.772;2023-11-21T05:52:15;6.70;99.90
46117;DHT22;32591;48.102;11.772;2023-11-21T05:54:42;6.80;99.90
46117;DHT22;32591;48.102;11.772;2023-11-21T05:57:09;6.80;99.90
46117;DHT22;32591;48.102;11.772;2023-11-21T05:59:35;6.80;99.90
46117;DHT22;32591;48.102;11.772;2023-11-21T06:02:02;6.90;99.90
46117;DHT22;32591;48.102;11.772;2023-11-21T06:04:31;6.90;99.90
46117;DHT22;32591;48.102;11.772;2023-11-21T06:06:58;8.00;99.90
46117;DHT22;32591;48.102;11.772;2023-11-21T06:09:26;7.10;99.90
46117;DHT22;32591;48.102;11.772;2023-11-21T06:11:53;7.10;99.90
46117;DHT22;32591;48.102;11.772;2023-11-21T06:14:20;7.10;99.90
46117;DHT22;32591;48.102;11.772;2023-11-21T06:16:47;7.10;99.90
46117;DHT22;32591;48.102;11.772;2023-11-21T06:19:18;7.20;99.90
46117;DHT22;32591;48.102;11.772;2023-11-21T06:21:46;7.10;99.90
46117;DHT22;32591;48.102;11.772;2023-11-21T06:24:13;7.20;99.90
46117;DHT22;32591;48.102;11.772;2023-11-21T06:26:40;7.20;99.90
46117;DHT22;32591;48.102;11.772;2023-11-21T06:29:07;8.10;99.90
46117;DHT22;32591;48.102;11.772;2023-11-21T06:31:34;7.10;99.90
46117;DHT22;32591;48.102;11.772;2023-11-21T06:34:01;7.10;99.90
46117;DHT22;32591;48.102;11.772;2023-11-21T06:36:28;7.10;99.90
46117;DHT22;32591;48.102;11.772;2023-11-21T06:38:56;7.10;99.90
46117;DHT22;32591;48.102;11.772;2023-11-21T06:41:23;7.10;99.90
46117;DHT22;32591;48.102;11.772;2023-11-21T06:43:50;7.10;99.90
46117;DHT22;32591;48.102;11.772;2023-11-21T06:46:18;7.10;99.90
46117;DHT22;32591;48.102;11.772;2023-11-21T06:48:45;7.20;99.90
46117;DHT22;32591;48.102;11.772;2023-11-21T06:51:12;7.20;99.90
46117;DHT22;32591;48.102;11.772;2023-11-21T06:53:39;7.30;99.90
46117;DHT22;32591;48.102;11.772;2023-11-21T06:56:16;7.20;99.90
46117;DHT22;32591;48.102;11.772;2023-11-21T06:58:43;7.30;99.90
46117;DHT22;32591;48.102;11.772;2023-11-21T07:01:11;7.30;99.90
46117;DHT22;32591;48.102;11.772;2023-11-21T07:03:38;7.30;99.90
46117;DHT22;32591;48.102;11.772;2023-11-21T07:06:06;7.60;99.90
46117;DHT22;32591;48.102;11.772;2023-11-21T07:08:34;7.60;99.90
46117;DHT22;32591;48.102;11.772;2023-11-21T07:11:01;7.50;99.90
46117;DHT22;32591;48.102;11.772;2023-11-21T07:13:29;7.40;99.90
46117;DHT22;32591;48.102;11.772;2023-11-21T07:15:57;7.40;99.90
46117;DHT22;32591;48.102;11.772;2023-11-21T07:18:24;7.30;99.90
46117;DHT22;32591;48.102;11.772;2023-11-21T07:20:51;7.40;99.90
46117;DHT22;32591;48.102;11.772;2023-11-21T07:23:18;7.40;99.90
46117;DHT22;32591;48.102;11.772;2023-11-21T07:25:45;7.40;99.90
46117;DHT22;32591;48.102;11.772;2023-11-21T07:28:12;7.50;99.90
46117;DHT22;32591;48.102;11.772;2023-11-21T07:30:41;7.50;99.90
46117;DHT22;32591;48.102;11.772;2023-11-21T07:33:08;7.50;99.90
46117;DHT22;32591;48.102;11.772;2023-11-21T07:35:35;7.50;99.90
46117;DHT22;32591;48.102;11.772;2023-11-21T07:38:02;7.50;99.90
46117;DHT22;32591;48.102;11.772;2023-11-21T07:40:29;7.50;99.90
46117;DHT22;32591;48.102;11.772;2023-11-21T07:42:55;7.50;99.90
46117;DHT22;32591;48.102;11.772;2023-11-21T07:45:22;7.50;99.90
46117;DHT22;32591;48.102;11.772;2023-11-21T07:47:51;7.50;99.90
46117;DHT22;32591;48.102;11.772;2023-11-21T07:50:17;7.60;99.90
46117;DHT22;32591;48.102;11.772;2023-11-21T07:52:46;7.50;99.90
46117;DHT22;32591;48.102;11.772;2023-11-21T07:55:12;7.60;99.90
46117;DHT22;32591;48.102;11.772;2023-11-21T07:57:39;7.50;99.90
46117;DHT22;32591;48.102;11.772;2023-11-21T08:00:06;7.40;99.90
46117;DHT22;32591;48.102;11.772;2023-11-21T08:02:37;7.40;99.90
46117;DHT22;32591;48.102;11.772;2023-11-21T08:05:06;7.40;99.90
46117;DHT22;32591;48.102;11.772;2023-11-21T08:07:33;5.90;99.90
46117;DHT22;32591;48.102;11.772;2023-11-21T08:10:01;7.50;99.90
46117;DHT22;32591;48.102;11.772;2023-11-21T08:12:28;7.50;99.90
46117;DHT22;32591;48.102;11.772;2023-11-21T08:14:55;7.60;99.90
46117;DHT22;32591;48.102;11.772;2023-11-21T08:17:22;7.50;99.90
46117;DHT22;32591;48.102;11.772;2023-11-21T08:19:49;7.50;99.90
46117;DHT22;32591;48.102;11.772;2023-11-21T08:22:18;7.60;99.90
46117;DHT22;32591;48.102;11.772;2023-11-21T08:24:44;7.60;99.90
46117;DHT22;32591;48.102;11.772;2023-11-21T08:27:12;7.60;99.90
46117;DHT22;32591;48.102;11.772;2023-11-21T08:29:41;7.60;99.90
46117;DHT22;32591;48.102;11.772;2023-11-21T08:32:07;7.70;99.90
46117;DHT22;32591;48.102;11.772;2023-11-21T08:34:34;7.80;99.90
46117;DHT22;32591;48.102;11.772;2023-11-21T08:37:02;7.80;99.90
46117;DHT22;32591;48.102;11.772;2023-11-21T08:39:30;7.70;99.90
46117;DHT22;32591;48.102;11.772;2023-11-21T08:41:57;7.70;99.90
46117;DHT22;32591;48.102;11.772;2023-11-21T08:44:24;7.70;99.90
46117;DHT22;32591;48.102;11.772;2023-11-21T08:46:51;7.70;99.90
46117;DHT22;32591;48.102;11.772;2023-11-21T08:49:17;7.90;99.90
46117;DHT22;32591;48.102;11.772;2023-11-21T08:51:44;7.80;99.90
46117;DHT22;32591;48.102;11.772;2023-11-21T08:54:11;7.70;99.90
46117;DHT22;32591;48.102;11.772;2023-11-21T08:56:39;7.70;99.90
46117;DHT22;32591;48.102;11.772;2023-11-21T08:59:06;7.70;99.90
46117;DHT22;32591;48.102;11.772;2023-11-21T09:01:33;7.70;99.90
46117;DHT22;32591;48.102;11.772;2023-11-21T09:04:00;7.70;99.90
46117;DHT22;32591;48.102;11.772;2023-11-21T09:06:27;7.70;99.90
46117;DHT22;32591;48.102;11.772;2023-11-21T09:08:54;7.70;99.90
46117;DHT22;32591;48.102;11.772;2023-11-21T09:11:21;7.70;99.90
46117;DHT22;32591;48.102;11.772;2023-11-21T09:13:52;7.70;99.90
46117;DHT22;32591;48.102;11.772;2023-11-21T09:16:19;7.80;99.90
46117;DHT22;32591;48.102;11.772;2023-11-21T09:18:46;7.90;99.90
46117;DHT22;32591;48.102;11.772;2023-11-21T09:21:13;7.90;99.90
46117;DHT22;32591;48.102;11.772;2023-11-21T09:23:40;8.00;99.90
46117;DHT22;32591;48.102;11.772;2023-11-21T09:26:06;8.00;99.90
46117;DHT22;32591;48.102;11.772;2023-11-21T09:28:34;7.90;99.90
46117;DHT22;32591;48.102;11.772;2023-11-21T09:31:05;8.00;99.90
46117;DHT22;32591;48.102;11.772;2023-11-21T09:33:34;8.10;99.90
46117;DHT22;32591;48.102;11.772;2023-11-21T09:36:01;8.20;99.90
46117;DHT22;32591;48.102;11.772;2023-11-21T09:38:30;8.20;99.90
46117;DHT22;32591;48.102;11.772;2023-11-21T09:40:57;8.20;99.90
46117;DHT22;32591;48.102;11.772;2023-11-21T09:43:24;8.20;99.90
46117;DHT22;32591;48.102;11.772;2023-11-21T09:45:54;8.20;99.90
46117;DHT22;32591;48.102;11.772;2023-11-21T09:48:25;8.20;99.90
46117;DHT22;32591;48.102;11.772;2023-11-21T09:50:53;8.30;99.90
46117;DHT22;32591;48.102;11.772;2023-11-21T09:53:21;8.30;99.90
46117;DHT22;32591;48.102;11.772;2023-11-21T09:55:51;8.30;99.90
46117;DHT22;32591;48.102;11.772;2023-11-21T09:58:18;8.40;99.90
46117;DHT22;32591;48.102;11.772;2023-11-21T10:00:47;8.40;99.90
46117;DHT22;32591;48.102;11.772;2023-11-21T10:03:14;8.40;99.90
46117;DHT22;32591;48.102;11.772;2023-11-21T10:05:43;8.30;99.90
46117;DHT22;32591;48.102;11.772;2023-11-21T10:08:11;8.30;99.90
46117;DHT22;32591;48.102;11.772;2023-11-21T10:10:41;8.40;99.90
46117;DHT22;32591;48.102;11.772;2023-11-21T10:13:11;8.60;99.90
46117;DHT22;32591;48.102;11.772;2023-11-21T10:15:38;8.80;99.90
46117;DHT22;32591;48.102;11.772;2023-11-21T10:18:06;8.80;99.90
46117;DHT22;32591;48.102;11.772;2023-11-21T10:20:34;8.80;99.90
46117;DHT22;32591;48.102;11.772;2023-11-21T10:23:04;8.90;99.90
46117;DHT22;32591;48.102;11.772;2023-11-21T10:25:33;9.10;99.90
46117;DHT22;32591;48.102;11.772;2023-11-21T10:28:03;9.10;99.90
46117;DHT22;32591;48.102;11.772;2023-11-21T10:30:32;9.00;99.90
46117;DHT22;32591;48.102;11.772;2023-11-21T10:33:02;8.90;99.90
46117;DHT22;32591;48.102;11.772;2023-11-21T10:35:39;8.90;99.90
46117;DHT22;32591;48.102;11.772;2023-11-21T10:38:13;8.70;99.90
46117;DHT22;32591;48.102;11.772;2023-11-21T10:40:40;8.60;99.90
46117;DHT22;32591;48.102;11.772;2023-11-21T10:43:07;8.70;99.90
46117;DHT22;32591;48.102;11.772;2023-11-21T10:45:35;9.60;99.90
46117;DHT22;32591;48.102;11.772;2023-11-21T10:48:07;10.40;99.90
46117;DHT22;32591;48.102;11.772;2023-11-21T10:50:36;8.80;99.90
46117;DHT22;32591;48.102;11.772;2023-11-21T10:53:03;8.90;99.90
46117;DHT22;32591;48.102;11.772;2023-11-21T10:55:32;9.00;99.90
46117;DHT22;32591;48.102;11.772;2023-11-21T10:58:00;9.20;99.90
46117;DHT22;32591;48.102;11.772;2023-11-21T11:00:29;9.30;99.90
46117;DHT22;32591;48.102;11.772;2023-11-21T11:02:58;9.40;99.90
46117;DHT22;32591;48.102;11.772;2023-11-21T11:05:26;9.40;99.90
46117;DHT22;32591;48.102;11.772;2023-11-21T11:07:56;9.40;99.90
46117;DHT22;32591;48.102;11.772;2023-11-21T11:10:27;9.50;99.90
46117;DHT22;32591;48.102;11.772;2023-11-21T11:12:57;9.40;99.90
46117;DHT22;32591;48.102;11.772;2023-11-21T11:15:25;9.40;99.90
46117;DHT22;32591;48.102;11.772;2023-11-21T11:17:52;9.50;99.90
46117;DHT22;32591;48.102;11.772;2023-11-21T11:20:22;9.40;99.90
46117;DHT22;32591;48.102;11.772;2023-11-21T11:22:56;9.30;99.90
46117;DHT22;32591;48.102;11.772;2023-11-21T11:25:41;9.30;99.90
46117;DHT22;32591;48.102;11.772;2023-11-21T11:28:17;9.30;99.90
46117;DHT22;32591;48.102;11.772;2023-11-21T11:30:50;9.30;99.90
46117;DHT22;32591;48.102;11.772;2023-11-21T11:33:27;9.30;99.90
46117;DHT22;32591;48.102;11.772;2023-11-21T11:36:00;9.30;99.90
46117;DHT22;32591;48.102;11.772;2023-11-21T11:38:31;9.30;99.90
46117;DHT22;32591;48.102;11.772;2023-11-21T11:41:01;9.40;99.90
46117;DHT22;32591;48.102;11.772;2023-11-21T11:43:30;9.30;99.90
46117;DHT22;32591;48.102;11.772;2023-11-21T11:46:05;9.30;99.90
46117;DHT22;32591;48.102;11.772;2023-11-21T11:48:34;9.30;99.90
46117;DHT22;32591;48.102;11.772;2023-11-21T11:51:03;9.50;99.90
46117;DHT22;32591;48.102;11.772;2023-11-21T11:53:37;9.30;99.90
46117;DHT22;32591;48.102;11.772;2023-11-21T11:56:25;9.40;99.90
46117;DHT22;32591;48.102;11.772;2023-11-21T11:58:55;9.30;99.90
46117;DHT22;32591;48.102;11.772;2023-11-21T12:01:24;9.50;99.90
46117;DHT22;32591;48.102;11.772;2023-11-21T12:06:51;9.40;99.90
46117;DHT22;32591;48.102;11.772;2023-11-21T12:09:18;9.40;99.90
46117;DHT22;32591;48.102;11.772;2023-11-21T12:11:46;9.50;99.90
46117;DHT22;32591;48.102;11.772;2023-11-21T12:14:15;9.60;99.90
46117;DHT22;32591;48.102;11.772;2023-11-21T12:16:43;9.40;99.90
46117;DHT22;32591;48.102;11.772;2023-11-21T12:19:10;9.40;99.90
46117;DHT22;32591;48.102;11.772;2023-11-21T12:21:37;9.30;99.90
46117;DHT22;32591;48.102;11.772;2023-11-21T12:24:04;9.30;99.90
46117;DHT22;32591;48.102;11.772;2023-11-21T12:26:34;9.30;99.90
46117;DHT22;32591;48.102;11.772;2023-11-21T12:29:01;9.30;99.90
46117;DHT22;32591;48.102;11.772;2023-11-21T12:31:31;9.30;99.90
46117;DHT22;32591;48.102;11.772;2023-11-21T12:33:58;9.30;99.90
46117;DHT22;32591;48.102;11.772;2023-11-21T12:36:24;9.20;99.90
46117;DHT22;32591;48.102;11.772;2023-11-21T12:38:51;9.30;99.90
46117;DHT22;32591;48.102;11.772;2023-11-21T12:41:28;9.20;99.90
46117;DHT22;32591;48.102;11.772;2023-11-21T12:43:55;9.30;99.90
46117;DHT22;32591;48.102;11.772;2023-11-21T12:46:22;9.30;99.90
46117;DHT22;32591;48.102;11.772;2023-11-21T12:48:52;9.40;99.90
46117;DHT22;32591;48.102;11.772;2023-11-21T12:51:20;9.40;99.90
46117;DHT22;32591;48.102;11.772;2023-11-21T12:53:47;9.40;99.90
46117;DHT22;32591;48.102;11.772;2023-11-21T12:56:14;9.40;99.90
46117;DHT22;32591;48.102;11.772;2023-11-21T12:58:44;9.40;99.90
46117;DHT22;32591;48.102;11.772;2023-11-21T13:01:12;9.40;99.90
46117;DHT22;32591;48.102;11.772;2023-11-21T13:03:45;9.50;99.90
46117;DHT22;32591;48.102;11.772;2023-11-21T13:06:15;9.60;99.90
46117;DHT22;32591;48.102;11.772;2023-11-21T13:08:43;9.50;99.90
46117;DHT22;32591;48.102;11.772;2023-11-21T13:11:11;9.50;99.90
46117;DHT22;32591;48.102;11.772;2023-11-21T13:13:40;9.60;99.90
46117;DHT22;32591;48.102;11.772;2023-11-21T13:16:08;9.70;99.90
46117;DHT22;32591;48.102;11.772;2023-11-21T13:18:35;9.70;99.90
46117;DHT22;32591;48.102;11.772;2023-11-21T13:21:03;9.80;99.90
46117;DHT22;32591;48.102;11.772;2023-11-21T13:23:36;9.80;99.90
46117;DHT22;32591;48.102;11.772;2023-11-21T13:26:04;9.80;99.90
46117;DHT22;32591;48.102;11.772;2023-11-21T13:28:31;9.80;99.90
46117;DHT22;32591;48.102;11.772;2023-11-21T13:30:58;9.80;99.90
46117;DHT22;32591;48.102;11.772;2023-11-21T13:33:28;9.80;99.90
46117;DHT22;32591;48.102;11.772;2023-11-21T13:35:55;9.80;99.90
46117;DHT22;32591;48.102;11.772;2023-11-21T13:38:23;9.70;99.90
46117;DHT22;32591;48.102;11.772;2023-11-21T13:40:51;9.60;99.90
46117;DHT22;32591;48.102;11.772;2023-11-21T13:43:20;9.60;99.90
46117;DHT22;32591;48.102;11.772;2023-11-21T13:45:49;9.50;99.90
46117;DHT22;32591;48.102;11.772;2023-11-21T13:48:21;9.30;99.90
46117;DHT22;32591;48.102;11.772;2023-11-21T13:50:56;9.20;99.90
46117;DHT22;32591;48.102;11.772;2023-11-21T13:53:26;9.20;99.90
46117;DHT22;32591;48.102;11.772;2023-11-21T13:55:55;9.10;99.90
46117;DHT22;32591;48.102;11.772;2023-11-21T13:58:23;9.00;99.90
46117;DHT22;32591;48.102;11.772;2023-11-21T14:01:00;8.80;99.90
46117;DHT22;32591;48.102;11.772;2023-11-21T14:03:31;8.70;99.90
46117;DHT22;32591;48.102;11.772;2023-11-21T14:06:05;8.70;99.90
46117;DHT22;32591;48.102;11.772;2023-11-21T14:08:39;8.60;99.90
46117;DHT22;32591;48.102;11.772;2023-11-21T14:11:08;8.60;99.90
46117;DHT22;32591;48.102;11.772;2023-11-21T14:13:36;8.70;99.90
46117;DHT22;32591;48.102;11.772;2023-11-21T14:16:03;8.80;99.90
46117;DHT22;32591;48.102;11.772;2023-11-21T14:18:32;8.80;99.90
46117;DHT22;32591;48.102;11.772;2023-11-21T14:21:04;8.90;99.90
46117;DHT22;32591;48.102;11.772;2023-11-21T14:23:31;9.00;99.90
46117;DHT22;32591;48.102;11.772;2023-11-21T14:26:01;9.10;99.90
46117;DHT22;32591;48.102;11.772;2023-11-21T14:28:29;9.20;99.90
46117;DHT22;32591;48.102;11.772;2023-11-21T14:30:56;9.20;99.90
46117;DHT22;32591;48.102;11.772;2023-11-21T14:33:22;9.20;99.90
46117;DHT22;32591;48.102;11.772;2023-11-21T14:35:49;9.20;99.90
46117;DHT22;32591;48.102;11.772;2023-11-21T14:38:16;9.10;99.90
46117;DHT22;32591;48.102;11.772;2023-11-21T14:40:44;9.00;99.90
46117;DHT22;32591;48.102;11.772;2023-11-21T14:43:12;8.80;99.90
46117;DHT22;32591;48.102;11.772;2023-11-21T14:45:41;8.60;99.90
46117;DHT22;32591;48.102;11.772;2023-11-21T14:48:08;8.50;99.90
46117;DHT22;32591;48.102;11.772;2023-11-21T14:50:41;8.40;99.90
46117;DHT22;32591;48.102;11.772;2023-11-21T14:53:26;8.30;99.90
46117;DHT22;32591;48.102;11.772;2023-11-21T14:56:09;8.20;99.90
46117;DHT22;32591;48.102;11.772;2023-11-21T14:58:35;8.10;99.90
46117;DHT22;32591;48.102;11.772;2023-11-21T15:01:05;8.00;99.90
46117;DHT22;32591;48.102;11.772;2023-11-21T15:03:33;8.00;99.90
46117;DHT22;32591;48.102;11.772;2023-11-21T15:06:09;8.00;99.90
46117;DHT22;32591;48.102;11.772;2023-11-21T15:08:48;8.10;99.90
46117;DHT22;32591;48.102;11.772;2023-11-21T15:11:19;8.30;99.90
46117;DHT22;32591;48.102;11.772;2023-11-21T15:13:47;8.30;99.90
46117;DHT22;32591;48.102;11.772;2023-11-21T15:16:17;8.40;99.90
46117;DHT22;32591;48.102;11.772;2023-11-21T15:18:44;8.40;99.90
46117;DHT22;32591;48.102;11.772;2023-11-21T15:21:11;8.40;99.90
46117;DHT22;32591;48.102;11.772;2023-11-21T15:23:38;8.40;99.90
46117;DHT22;32591;48.102;11.772;2023-11-21T15:26:07;8.50;99.90
46117;DHT22;32591;48.102;11.772;2023-11-21T15:28:35;8.50;99.90
46117;DHT22;32591;48.102;11.772;2023-11-21T15:31:02;8.60;99.90
46117;DHT22;32591;48.102;11.772;2023-11-21T15:33:30;8.60;99.90
46117;DHT22;32591;48.102;11.772;2023-11-21T15:35:57;8.60;99.90
46117;DHT22;32591;48.102;11.772;2023-11-21T15:38:24;8.60;99.90